Aérodrome :
LOGIN :

S'inscrire | Disclaimer

   EN    FR    IT 

 










Légende :    VFR   VFR Marginal   IFR   IFR Intensif   IFR Très Intensif
Visi : 
Plafond : 
>= 8 km
>= 3000ft
5 à 8 km
1000 à 3000 ft
1500m à 5 km
500 à 1000 ft
800 à 1500m
200 à 500 ft
< 800m
< 200 ft
Symboles :   Orages  Brouillard  Fortes neiges  Fortes précipitations  Vent > 20 kt
SIGMETs :   Divers  Orages  Givrage  Turbulence  Onde Orograph.  Cendres Volcan.







- Altitude de l'aérodrome : 299 ft
- Code IATA : EDM
- Voir les cartes d'approche


LFRI - La Roche Sur Yon - Les Ajoncs

DERNIER METAR :
  • 152100Z AUTO 29012KT 9999 BKN013 OVC034 11/10 Q1012 BECMG BKN020

METARs EXPIRÉS :
  • 152030Z AUTO 27011KT 9999 OVC011 12/11 Q1011 BECMG BKN020
  • 152000Z AUTO 26015G27KT 9999 BKN008 OVC013 13/12 Q1011 TEMPO 2000 RADZ BECMG 25010KT BKN020
  • 151930Z AUTO 24013KT 210V270 9999 BKN007 OVC014 13/12 Q1011 TEMPO 2000 RADZ BECMG BKN020
  • 151900Z AUTO 24014KT 200V270 9999 OVC006 13/12 Q1011 TEMPO 2000 RADZ OVC003
  • 151830Z AUTO 22017KT 190V250 5000 -RA BR OVC004 13/12 Q1011 TEMPO 2000 RADZ

TAF TAF LFRI
Valide du 15 à 18h jusqu'au 16 à 18h UTC


151700Z 1518/1618 21015KT 9999 SCT003 OVC008
TEMPO 1518/1521 2000 RADZ OVC003
FM152100 25010KT 9999 BKN020
BECMG 1605/1607 18006KT
PROB30
TEMPO 1602/1607 4000 SHRA BKN030TCU
TEMPO 1607/1618 VRB15G25KT 4000 SHRA BKN025CB
PROB40
TEMPO 1614/1616 VRB25G40KT 2000 TSRA SCT010 BKN015CB
BECMG 1616/1618 25010KT
Pas de NOTAMs connus pour ce terrain.



MET'MAP, la Météo Aéronautique d'un coup d'oeil ! - Copyright ORBIFLY Décembre 2007 - Disclaimer

ORBIFLY MET'MAP TEAM :

Programmation & Développement : Alexandra Zaïnal
Conception & Développement : Baudouin d'Aumeries
Co-Programmation & Développement : Marc-Olivier Méhu
Soutien technique & logistique : Manuel Goepfert

Contact : metmap@orbifly.com




SOURCES & CREDITS :

   NOAA